createdAt,value
2018-11-06T00:00:05.570Z,2.9
2018-11-06T00:00:55.929Z,2.9
2018-11-06T00:01:46.528Z,2.9
2018-11-06T00:02:36.271Z,2.9
2018-11-06T00:03:26.401Z,2.9
2018-11-06T00:04:16.150Z,2.9
2018-11-06T00:05:06.218Z,2.8
2018-11-06T00:05:56.293Z,2.8
2018-11-06T00:06:46.341Z,2.8
2018-11-06T00:25:03.387Z,2.5
2018-11-06T00:25:53.498Z,2.5
2018-11-06T00:26:42.978Z,2.5
2018-11-06T00:27:33.322Z,2.5
2018-11-06T00:28:23.107Z,2.5
2018-11-06T00:29:13.180Z,2.5
2018-11-06T00:30:03.475Z,2.5
2018-11-06T00:30:53.295Z,2.4
2018-11-06T00:31:43.437Z,2.4
2018-11-06T00:32:33.679Z,2.4
2018-11-06T00:33:23.174Z,2.4
2018-11-06T00:34:13.841Z,2.4
2018-11-06T00:35:04.150Z,2.4
2018-11-06T00:35:53.634Z,2.4
2018-11-06T00:36:44.007Z,2.4
2018-11-06T00:37:34.051Z,2.4
2018-11-06T00:38:23.340Z,2.4
2018-11-06T00:39:14.186Z,2.4
2018-11-06T00:40:03.651Z,2.4
2018-11-06T00:40:54.004Z,2.4
2018-11-06T00:41:44.357Z,2.4
2018-11-06T00:42:33.838Z,2.4
2018-11-06T00:43:24.293Z,2.3
2018-11-06T00:44:14.247Z,2.3
2018-11-06T00:45:04.306Z,2.3
2018-11-06T00:45:54.452Z,2.3
2018-11-06T00:46:43.942Z,2.3
2018-11-06T00:47:34.840Z,2.3
2018-11-06T00:48:24.856Z,2.3
2018-11-06T00:49:14.892Z,2.3
2018-11-06T00:50:04.949Z,2.3
2018-11-06T00:50:54.543Z,2.3
2018-11-06T00:51:44.825Z,2.3
2018-11-06T00:52:34.283Z,2.2
2018-11-06T00:53:24.620Z,2.2
2018-11-06T00:54:14.980Z,2.2
2018-11-06T00:55:05.037Z,2.2
2018-11-06T00:55:55.100Z,2.2
2018-11-06T00:56:44.758Z,2.1
2018-11-06T00:57:35.515Z,2.1
2018-11-06T00:58:25.550Z,2.1
2018-11-06T00:59:15.636Z,2.1
2018-11-06T01:00:05.405Z,2.1
2018-11-06T01:00:55.743Z,2.1
2018-11-06T01:01:45.801Z,2.1
2018-11-06T01:02:35.303Z,2.1
2018-11-06T01:03:25.962Z,2.1
2018-11-06T01:04:15.998Z,2.1
2018-11-06T01:05:06.055Z,2.1
2018-11-06T01:05:56.139Z,2
2018-11-06T01:06:45.942Z,2
2018-11-06T01:07:36.473Z,2
2018-11-06T01:08:26.298Z,2
2018-11-06T01:09:16.059Z,2
2018-11-06T01:10:06.118Z,2
2018-11-06T01:10:56.195Z,2
2018-11-06T01:11:46.242Z,2
2018-11-06T01:12:36.850Z,2
2018-11-06T01:13:26.658Z,2
2018-11-06T01:14:16.463Z,1.9
2018-11-06T01:15:07.075Z,1.9
2018-11-06T01:15:56.537Z,1.9
2018-11-06T01:16:46.599Z,1.9
2018-11-06T01:17:36.940Z,1.9
2018-11-06T01:18:26.534Z,1.9
2018-11-06T01:19:16.514Z,1.9
2018-11-06T01:20:06.573Z,1.9
2018-11-06T01:20:56.921Z,1.9
2018-11-06T01:21:46.978Z,1.8
2018-11-06T01:22:37.026Z,1.8
2018-11-06T01:23:27.117Z,1.8
2018-11-06T01:24:16.966Z,1.8
2018-11-06T01:25:06.938Z,1.8
2018-11-06T01:25:56.803Z,1.8
2018-11-06T01:26:47.341Z,1.8
2018-11-06T01:27:37.113Z,1.8
2018-11-06T01:28:27.458Z,1.8
2018-11-06T01:29:17.791Z,1.7
2018-11-06T01:30:07.884Z,1.7
2018-11-06T01:30:57.638Z,1.7
2018-11-06T01:31:47.704Z,1.7
2018-11-06T01:32:37.839Z,1.6
2018-11-06T01:33:28.126Z,1.6
2018-11-06T01:34:17.874Z,1.6
2018-11-06T01:35:08.248Z,1.6
2018-11-06T01:35:58.313Z,1.6
2018-11-06T01:36:48.067Z,1.6
2018-11-06T01:37:37.833Z,1.6
2018-11-06T01:38:28.480Z,1.6
2018-11-06T01:39:17.965Z,1.6
2018-11-06T01:40:08.633Z,1.5
2018-11-06T01:40:58.076Z,1.5
2018-11-06T01:41:48.702Z,1.5
2018-11-06T01:42:38.000Z,1.5
2018-11-06T01:43:28.835Z,1.4
2018-11-06T01:44:18.637Z,1.4
2018-11-06T01:45:08.670Z,1.4
2018-11-06T01:45:59.251Z,1.4
2018-11-06T01:46:48.777Z,1.4
2018-11-06T01:47:39.132Z,1.4
2018-11-06T01:48:29.197Z,1.4
2018-11-06T01:49:19.273Z,1.4
2018-11-06T01:50:08.742Z,1.4
2018-11-06T01:50:59.372Z,1.4
2018-11-06T01:51:49.434Z,1.3
2018-11-06T01:52:39.512Z,1.3
2018-11-06T01:53:29.292Z,1.3
2018-11-06T01:54:19.622Z,1.3
2018-11-06T01:55:09.385Z,1.3
2018-11-06T01:55:59.729Z,1.3
2018-11-06T01:56:49.542Z,1.3
2018-11-06T01:57:39.564Z,1.3
2018-11-06T01:58:29.641Z,1.3
2018-11-06T01:59:19.975Z,1.2
2018-11-06T02:00:10.061Z,1.2
2018-11-06T02:00:59.808Z,1.2
2018-11-06T02:01:50.164Z,1.2
2018-11-06T02:02:39.659Z,1.2
2018-11-06T02:03:29.719Z,1.1
2018-11-06T02:04:20.079Z,1.1
2018-11-06T02:05:10.127Z,1.1
2018-11-06T02:06:00.474Z,1.1
2018-11-06T02:06:50.262Z,1.1
2018-11-06T02:07:40.323Z,1.1
2018-11-06T02:08:30.388Z,1.1
2018-11-06T02:09:20.707Z,1.1
2018-11-06T02:10:10.475Z,1.1
2018-11-06T02:11:00.252Z,1.1
2018-11-06T02:11:50.311Z,1.1
2018-11-06T02:12:40.951Z,1
2018-11-06T02:13:30.719Z,1
2018-11-06T02:14:20.797Z,1
2018-11-06T02:15:10.573Z,1
2018-11-06T02:16:00.618Z,1
2018-11-06T02:16:50.679Z,1
2018-11-06T02:17:41.036Z,1
2018-11-06T02:18:31.356Z,1
2018-11-06T02:19:21.452Z,0.9
2018-11-06T02:20:11.498Z,0.9
2018-11-06T02:21:01.566Z,0.9
2018-11-06T02:21:51.600Z,0.9
2018-11-06T02:22:41.705Z,0.9
2018-11-06T02:23:31.172Z,0.9
2018-11-06T02:24:21.502Z,0.9
2018-11-06T02:25:11.575Z,0.9
2018-11-06T02:26:01.648Z,0.9
2018-11-06T02:26:51.685Z,0.9
2018-11-06T02:27:42.080Z,0.9
2018-11-06T02:28:31.817Z,0.9
2018-11-06T02:29:21.872Z,0.9
2018-11-06T02:30:12.473Z,0.9
2018-11-06T02:31:02.005Z,0.9
2018-11-06T02:31:52.350Z,0.9
2018-11-06T02:32:42.133Z,0.8
2018-11-06T02:33:31.921Z,0.8
2018-11-06T02:34:22.241Z,0.8
2018-11-06T02:35:12.585Z,0.8
2018-11-06T02:36:02.647Z,0.8
2018-11-06T02:36:52.734Z,0.8
2018-11-06T02:37:42.195Z,0.8
2018-11-06T02:38:32.825Z,0.8
2018-11-06T02:39:22.883Z,0.8
2018-11-06T02:40:12.937Z,0.8
2018-11-06T02:41:02.538Z,0.8
2018-11-06T02:41:52.796Z,0.8
2018-11-06T02:42:42.841Z,0.8
2018-11-06T02:43:32.896Z,0.8
2018-11-06T02:44:22.951Z,0.8
2018-11-06T02:45:13.009Z,0.8
2018-11-06T02:46:03.101Z,0.7
2018-11-06T02:46:53.459Z,0.7
2018-11-06T02:47:43.219Z,0.7
2018-11-06T02:48:33.544Z,0.7
2018-11-06T02:49:23.331Z,0.7
2018-11-06T02:50:13.203Z,0.7
2018-11-06T02:51:03.149Z,0.7
2018-11-06T02:51:53.796Z,0.7
2018-11-06T02:52:43.578Z,0.7
2018-11-06T02:53:33.651Z,0.7
2018-11-06T02:54:23.766Z,0.7
2018-11-06T02:55:14.029Z,0.7
2018-11-06T02:56:04.543Z,0.7
2018-11-06T02:56:54.156Z,0.7
2018-11-06T02:57:43.926Z,0.6
2018-11-06T02:58:34.280Z,0.7
2018-11-06T02:59:23.762Z,0.6
2018-11-06T03:00:14.643Z,0.6
2018-11-06T03:01:04.453Z,0.6
2018-11-06T03:01:54.220Z,0.6
2018-11-06T03:02:44.388Z,0.6
2018-11-06T03:03:34.070Z,0.6
2018-11-06T03:04:24.121Z,0.6
2018-11-06T03:05:14.463Z,0.6
2018-11-06T03:06:04.520Z,0.6
2018-11-06T03:06:55.120Z,0.6
2018-11-06T03:07:44.922Z,0.6
2018-11-06T03:08:34.431Z,0.6
2018-11-06T03:09:25.043Z,0.6
2018-11-06T03:10:15.180Z,0.6
2018-11-06T03:11:04.620Z,0.6
2018-11-06T03:11:55.241Z,0.6
2018-11-06T03:12:45.019Z,0.6
2018-11-06T03:13:35.348Z,0.6
2018-11-06T03:14:24.839Z,0.6
2018-11-06T03:15:14.922Z,0.6
2018-11-06T03:16:05.549Z,0.6
2018-11-06T03:16:55.276Z,0.6
2018-11-06T03:17:45.676Z,0.6
2018-11-06T03:18:35.719Z,0.6
2018-11-06T03:19:25.515Z,0.6
2018-11-06T03:20:15.573Z,0.6
2018-11-06T03:21:05.691Z,0.6
2018-11-06T03:21:55.961Z,0.6
2018-11-06T03:22:46.056Z,0.6
2018-11-06T03:23:36.064Z,0.6
2018-11-06T03:24:26.154Z,0.6
2018-11-06T03:25:16.224Z,0.6
2018-11-06T03:26:06.271Z,0.5
2018-11-06T03:26:56.299Z,0.5
2018-11-06T03:27:46.094Z,0.5
2018-11-06T03:28:36.430Z,0.5
2018-11-06T03:29:26.507Z,0.5
2018-11-06T03:30:16.561Z,0.5
2018-11-06T03:31:06.371Z,0.5
2018-11-06T03:31:56.110Z,0.4
2018-11-06T03:32:46.456Z,0.4
2018-11-06T03:33:36.810Z,0.4
2018-11-06T03:34:26.546Z,0.4
2018-11-06T03:35:16.652Z,0.4
2018-11-06T03:36:06.703Z,0.4
2018-11-06T03:36:57.049Z,0.4
2018-11-06T03:37:46.833Z,0.4
2018-11-06T03:38:37.170Z,0.4
2018-11-06T03:39:27.235Z,0.3
2018-11-06T03:40:16.713Z,0.3
2018-11-06T03:41:07.078Z,0.3
2018-11-06T03:41:57.415Z,0.3
2018-11-06T03:42:47.190Z,0.3
2018-11-06T03:43:37.528Z,0.3
2018-11-06T03:44:27.310Z,0.3
2018-11-06T03:45:17.667Z,0.3
2018-11-06T03:46:07.673Z,0.3
2018-11-06T03:46:57.493Z,0.3
2018-11-06T03:47:47.819Z,0.2
2018-11-06T03:48:37.593Z,0.2
2018-11-06T03:49:27.946Z,0.2
2018-11-06T03:50:17.235Z,0.2
2018-11-06T03:51:07.460Z,0.2
2018-11-06T03:51:57.852Z,0.2
2018-11-06T03:52:48.195Z,0.2
2018-11-06T03:53:37.965Z,0.2
2018-11-06T03:54:28.280Z,0.1
2018-11-06T03:55:18.040Z,0.1
2018-11-06T03:56:07.870Z,0.1
2018-11-06T03:56:58.752Z,0.1
2018-11-06T03:57:48.275Z,0.1
2018-11-06T03:58:38.615Z,0.1
2018-11-06T03:59:28.653Z,0.1
2018-11-06T04:00:18.441Z,0.1
2018-11-06T04:01:08.500Z,0.1
2018-11-06T04:01:59.118Z,0.1
2018-11-06T04:02:48.646Z,0.1
2018-11-06T04:03:38.678Z,0
2018-11-06T04:04:28.998Z,0
2018-11-06T04:05:18.812Z,-0.1
2018-11-06T04:06:08.588Z,0
2018-11-06T04:06:58.920Z,-0.1
2018-11-06T04:07:48.982Z,-0.1
2018-11-06T04:08:39.335Z,-0.1
2018-11-06T04:09:29.120Z,-0.1
2018-11-06T04:10:19.477Z,-0.1
2018-11-06T04:11:09.509Z,-0.1
2018-11-06T04:11:59.842Z,-0.1
2018-11-06T04:12:49.064Z,-0.1
2018-11-06T04:13:39.419Z,-0.2
2018-11-06T04:14:29.195Z,-0.2
2018-11-06T04:15:19.836Z,-0.2
2018-11-06T04:16:09.882Z,-0.2
2018-11-06T04:16:59.381Z,-0.2
2018-11-06T04:17:50.029Z,-0.3
2018-11-06T04:18:39.726Z,-0.3
2018-11-06T04:19:29.546Z,-0.3
2018-11-06T04:20:19.901Z,-0.3
2018-11-06T04:21:09.985Z,-0.3
2018-11-06T04:22:00.309Z,-0.3
2018-11-06T04:22:50.364Z,-0.3
2018-11-06T04:23:40.153Z,-0.3
2018-11-06T04:24:30.184Z,-0.3
2018-11-06T04:25:21.645Z,-0.4
2018-11-06T04:26:10.638Z,-0.4
2018-11-06T04:27:00.385Z,-0.4
2018-11-06T04:27:50.718Z,-0.4
2018-11-06T04:28:40.500Z,-0.4
2018-11-06T04:29:30.843Z,-0.4
2018-11-06T04:30:21.722Z,-0.4
2018-11-06T04:31:10.695Z,-0.4
2018-11-06T04:32:01.029Z,-0.4
2018-11-06T04:32:51.085Z,-0.4
2018-11-06T04:33:40.586Z,-0.4
2018-11-06T04:34:30.925Z,-0.5
2018-11-06T04:35:20.693Z,-0.5
2018-11-06T04:36:11.356Z,-0.5
2018-11-06T04:54:13.065Z,-0.8
2018-11-06T04:55:03.142Z,-0.8
2018-11-06T04:55:52.434Z,-0.8
2018-11-06T04:56:43.270Z,-0.8
2018-11-06T04:57:33.041Z,-0.8
2018-11-06T04:58:23.336Z,-0.9
2018-11-06T04:59:13.742Z,-0.8
2018-11-06T05:00:03.517Z,-0.9
2018-11-06T05:00:53.284Z,-0.9
2018-11-06T05:01:43.629Z,-0.9
2018-11-06T05:03:23.971Z,-0.9
2018-11-06T05:07:34.255Z,-1
2018-11-06T05:08:24.088Z,-1
2018-11-06T05:09:13.861Z,-1
2018-11-06T05:10:04.241Z,-1
2018-11-06T05:10:54.264Z,-1.1
2018-11-06T05:11:43.813Z,-1.1
2018-11-06T05:12:33.635Z,-1.1
2018-11-06T05:13:39.106Z,-1.1
2018-11-06T05:14:14.585Z,-1.1
2018-11-06T05:15:19.220Z,-1.1
2018-11-06T05:15:53.861Z,-1.1
2018-11-06T05:16:44.433Z,-1.1
2018-11-06T05:17:34.456Z,-1.1
2018-11-06T05:18:24.542Z,-1.1
2018-11-06T05:19:14.598Z,-1.2
2018-11-06T05:20:04.618Z,-1.1
2018-11-06T05:20:54.713Z,-1.1
2018-11-06T05:21:44.780Z,-1.2
2018-11-06T05:22:34.346Z,-1.2
2018-11-06T05:23:24.965Z,-1.2
2018-11-06T05:24:14.745Z,-1.2
2018-11-06T05:25:05.561Z,-1.2
2018-11-06T05:25:54.862Z,-1.2
2018-11-06T05:26:44.925Z,-1.3
2018-11-06T05:27:35.491Z,-1.2
2018-11-06T05:28:25.440Z,-1.2
2018-11-06T05:29:14.818Z,-1.3
2018-11-06T05:30:05.376Z,-1.3
2018-11-06T05:30:55.235Z,-1.3
2018-11-06T05:31:45.773Z,-1.3
2018-11-06T05:32:35.129Z,-1.3
2018-11-06T05:33:25.320Z,-1.3
2018-11-06T09:08:41.908Z,59
2018-11-06T09:09:31.585Z,59.1
2018-11-06T09:10:21.940Z,59.2
2018-11-06T09:11:11.937Z,59.3
2018-11-06T09:12:01.749Z,59.4
2018-11-06T09:12:52.107Z,59.4
2018-11-06T09:13:41.739Z,59.6
2018-11-06T09:14:32.020Z,59.6
2018-11-06T09:15:22.087Z,59.7
2018-11-06T09:16:12.049Z,59.8
2018-11-06T09:17:02.539Z,59.9
2018-11-06T09:17:52.246Z,59.9
2018-11-06T09:18:41.927Z,59.9
2018-11-06T09:19:32.554Z,60
2018-11-06T09:20:22.313Z,60.1
2018-11-06T09:21:12.106Z,60.2
2018-11-06T09:22:02.754Z,60.3
2018-11-06T09:22:52.221Z,60.4
2018-11-06T09:23:42.849Z,60.4
2018-11-06T09:24:32.707Z,60.6
2018-11-06T09:25:22.681Z,60.6
2018-11-06T09:26:12.456Z,60.8
2018-11-06T09:27:02.534Z,60.8
2018-11-06T09:27:52.955Z,60.8
2018-11-06T09:28:43.028Z,60.9
2018-11-06T09:29:33.278Z,61
2018-11-06T09:30:23.345Z,61.1
2018-11-06T09:31:13.134Z,61.2
2018-11-06T09:32:02.969Z,61.2
2018-11-06T09:32:53.295Z,61.3
2018-11-06T09:33:43.283Z,61.4
2018-11-06T09:34:33.307Z,61.4
2018-11-06T09:35:23.468Z,61.5
2018-11-06T09:36:13.468Z,61.6
2018-11-06T09:37:03.835Z,61.7
2018-11-06T09:37:53.695Z,61.8
2018-11-06T09:38:43.941Z,61.9
2018-11-06T09:39:34.051Z,61.9
2018-11-06T09:40:23.762Z,62
2018-11-06T09:41:13.947Z,62.1
2018-11-06T09:42:03.697Z,62.2
2018-11-06T09:42:54.244Z,62.3
2018-11-06T09:43:44.025Z,62.3
2018-11-06T09:45:24.261Z,62.4
2018-11-06T09:46:14.212Z,62.5
2018-11-06T09:47:03.980Z,62.6
2018-11-06T09:47:54.333Z,62.7
2018-11-06T09:48:44.784Z,62.8
2018-11-06T09:49:34.449Z,62.8
2018-11-06T09:50:24.017Z,62.9
2018-11-06T09:51:14.282Z,62.9
2018-11-06T09:52:05.373Z,63.1
2018-11-06T09:52:54.672Z,63.2
2018-11-06T09:53:44.468Z,63.3
2018-11-06T09:54:34.818Z,63.3
2018-11-06T09:55:24.882Z,63.4
2018-11-06T09:56:14.944Z,63.4
2018-11-06T09:57:05.277Z,63.6
2018-11-06T09:57:55.051Z,63.6
2018-11-06T09:58:45.116Z,63.7
2018-11-06T09:59:35.484Z,63.8
2018-11-06T10:00:25.108Z,63.8
2018-11-06T10:01:15.384Z,63.9
2018-11-06T10:02:05.357Z,64
2018-11-06T10:02:55.699Z,64
2018-11-06T10:03:45.772Z,64.1
2018-11-06T10:04:35.132Z,64.2
2018-11-06T10:05:25.861Z,64.3
2018-11-06T10:06:16.803Z,64.3
2018-11-06T10:07:06.415Z,64.4
2018-11-06T10:07:56.004Z,64.5
2018-11-06T10:08:46.110Z,64.6
2018-11-06T10:09:36.196Z,64.6
2018-11-06T10:10:25.945Z,64.6
2018-11-06T10:11:16.020Z,64.8
2018-11-06T10:12:06.061Z,64.8
2018-11-06T10:12:56.449Z,64.8
2018-11-06T10:13:46.504Z,64.9
2018-11-06T10:14:35.961Z,65
2018-11-06T10:15:26.856Z,65.1
2018-11-06T10:16:16.371Z,65.1
2018-11-06T10:17:06.256Z,65.2
2018-11-06T10:17:56.503Z,65.3
2018-11-06T10:18:46.288Z,65.3
2018-11-06T10:19:36.597Z,65.4
2018-11-06T10:20:26.385Z,65.4
2018-11-06T10:21:16.611Z,65.4
2018-11-06T10:22:07.067Z,65.6
2018-11-06T10:22:56.851Z,65.6
2018-11-06T10:23:46.736Z,65.6
2018-11-06T10:24:37.515Z,65.7
2018-11-06T10:25:27.314Z,65.8
2018-11-06T10:26:17.087Z,65.8
2018-11-06T10:27:07.207Z,65.9
2018-11-06T10:27:57.504Z,66
2018-11-06T10:28:47.290Z,66.1
2018-11-06T10:29:37.349Z,66.1
2018-11-06T10:30:27.122Z,66.1
2018-11-06T10:31:17.175Z,66.2
2018-11-06T10:32:07.812Z,66.3
2018-11-06T10:32:57.884Z,66.3
2018-11-06T10:33:47.663Z,66.4
2018-11-06T10:34:37.981Z,66.4
2018-11-06T10:35:27.499Z,66.5
2018-11-06T10:36:17.837Z,66.6
2018-11-06T10:37:07.897Z,66.6
2018-11-06T10:37:57.741Z,66.7
2018-11-06T10:38:48.106Z,66.7
2018-11-06T10:39:38.195Z,66.8
2018-11-06T10:40:28.452Z,66.8
2018-11-06T10:41:17.901Z,66.9
2018-11-06T10:42:07.976Z,66.9
2018-11-06T10:42:58.309Z,66.9
2018-11-06T10:43:48.868Z,67
2018-11-06T10:44:38.966Z,67.1
2018-11-06T10:45:28.516Z,67.1
2018-11-06T10:46:18.276Z,67.2
2018-11-06T10:47:08.921Z,67.3
2018-11-06T10:47:58.704Z,67.3
2018-11-06T10:48:49.025Z,67.3
2018-11-06T10:49:38.807Z,67.4
2018-11-06T10:50:29.161Z,67.4
2018-11-06T10:51:19.211Z,67.5
2018-11-06T10:52:09.539Z,67.6
2018-11-06T10:52:59.031Z,67.6
2018-11-06T10:53:48.821Z,67.6
2018-11-06T10:54:39.445Z,67.7
2018-11-06T10:55:29.214Z,67.8
2018-11-06T10:56:19.598Z,67.8
2018-11-06T10:57:09.361Z,67.8
2018-11-06T10:57:59.777Z,67.8
2018-11-06T10:58:49.463Z,67.9
2018-11-06T10:59:39.546Z,67.9
2018-11-06T11:00:29.649Z,68
2018-11-06T11:01:19.645Z,68
2018-11-06T11:02:09.795Z,68.1
2018-11-06T11:02:59.477Z,68.1
2018-11-06T11:03:50.140Z,68.1
2018-11-06T11:04:40.168Z,68.2
2018-11-06T11:05:29.950Z,68.2
2018-11-06T11:06:20.022Z,68.3
2018-11-06T11:07:10.374Z,68.3
2018-11-06T11:08:00.040Z,68.4
2018-11-06T11:08:50.485Z,68.4
2018-11-06T11:09:40.259Z,68.5
2018-11-06T11:10:30.592Z,68.5
2018-11-06T11:11:20.395Z,68.6
2018-11-06T11:12:10.442Z,68.6
2018-11-06T11:13:00.809Z,68.6
2018-11-06T11:13:50.263Z,68.7
2018-11-06T11:14:40.887Z,68.8
2018-11-06T11:15:30.682Z,68.8
2018-11-06T11:16:21.085Z,68.8
2018-11-06T11:17:10.794Z,68.8
2018-11-06T11:18:00.679Z,68.9
2018-11-06T11:18:50.946Z,68.9
2018-11-06T11:19:40.984Z,68.9
2018-11-06T11:20:31.376Z,69
2018-11-06T11:21:21.104Z,69.1
2018-11-06T11:22:11.454Z,69.1
2018-11-06T11:23:01.234Z,69.1
2018-11-06T11:23:51.356Z,69.2
2018-11-06T11:24:41.642Z,69.2
2018-11-06T11:25:31.869Z,69.3
2018-11-06T11:26:21.191Z,69.3
2018-11-06T11:27:11.929Z,69.3
2018-11-06T11:28:01.596Z,69.3
2018-11-06T11:28:51.529Z,69.4
2018-11-06T11:29:41.424Z,69.4
2018-11-06T11:30:31.492Z,69.4
2018-11-06T11:31:22.142Z,69.5
2018-11-06T11:32:12.429Z,69.6
2018-11-06T11:33:02.280Z,69.6
2018-11-06T11:33:52.453Z,69.6
2018-11-06T11:34:41.591Z,69.6
2018-11-06T11:35:31.926Z,69.6
2018-11-06T11:36:22.191Z,69.7
2018-11-06T11:37:12.498Z,69.7
2018-11-06T11:38:02.417Z,69.7
2018-11-06T11:38:52.671Z,69.7
2018-11-06T11:39:42.721Z,69.8
2018-11-06T11:40:32.588Z,69.8
2018-11-06T11:41:22.575Z,69.8
2018-11-06T11:42:12.863Z,69.8
2018-11-06T11:43:02.691Z,69.8
2018-11-06T11:43:52.771Z,69.8
2018-11-06T11:44:42.318Z,69.9
2018-11-06T11:45:33.156Z,69.9
2018-11-06T11:46:22.940Z,69.9
2018-11-06T11:47:12.982Z,69.9
2018-11-06T11:48:03.333Z,70
2018-11-06T11:48:53.405Z,70
2018-11-06T11:49:43.167Z,70
2018-11-06T11:50:32.943Z,70.1
2018-11-06T11:51:23.097Z,70.1
2018-11-06T11:52:13.321Z,70.1
2018-11-06T11:53:03.145Z,70.1
2018-11-06T11:53:53.271Z,70.1
2018-11-06T11:54:43.858Z,70.1
2018-11-06T11:55:33.883Z,70.1
2018-11-06T11:56:23.930Z,70.1
2018-11-06T11:57:13.689Z,70.1
2018-11-06T11:58:04.065Z,70.1
2018-11-06T11:58:54.145Z,70.1
2018-11-06T11:59:43.995Z,70.1
2018-11-06T12:00:34.040Z,70.1
2018-11-06T12:01:24.027Z,70.1
2018-11-06T12:02:14.665Z,70.1
2018-11-06T12:03:03.947Z,70.1
2018-11-06T12:03:54.470Z,70.1
2018-11-06T12:04:44.554Z,70.1
2018-11-06T12:05:34.619Z,70.1
2018-11-06T12:06:24.674Z,70.1
2018-11-06T12:07:14.741Z,70.1
2018-11-06T12:08:04.512Z,70.1
2018-11-06T12:08:54.591Z,70.1
2018-11-06T12:09:44.916Z,70.1
2018-11-06T12:10:35.240Z,70.1
2018-11-06T12:11:25.057Z,70
2018-11-06T12:12:15.096Z,70
2018-11-06T12:13:05.164Z,70.1
2018-11-06T12:13:55.244Z,70.1
2018-11-06T12:14:45.309Z,70
2018-11-06T12:15:35.378Z,70
2018-11-06T12:16:25.118Z,70
2018-11-06T12:17:15.519Z,70
2018-11-06T12:18:05.286Z,69.9
2018-11-06T12:18:55.590Z,70
2018-11-06T12:19:45.351Z,69.9
2018-11-06T12:20:35.734Z,69.9
2018-11-06T12:21:25.490Z,69.9
2018-11-06T12:22:15.536Z,69.9
2018-11-06T12:23:06.125Z,69.9
2018-11-06T12:23:55.506Z,69.9
2018-11-06T12:24:45.688Z,69.9
2018-11-06T12:25:36.204Z,69.8
2018-11-06T12:26:26.178Z,69.8
2018-11-06T12:27:16.193Z,69.8
2018-11-06T12:28:05.489Z,69.8
2018-11-06T12:28:55.539Z,69.8
2018-11-06T12:29:46.089Z,69.8
2018-11-06T12:30:36.438Z,69.7
2018-11-06T12:31:26.536Z,69.7
2018-11-06T12:32:16.263Z,69.6
2018-11-06T12:33:06.333Z,69.6
2018-11-06T12:33:56.705Z,69.6
2018-11-06T12:34:46.551Z,69.6
2018-11-06T12:35:36.798Z,69.5
2018-11-06T12:36:27.082Z,69.5
2018-11-06T12:37:16.628Z,69.4
2018-11-06T12:38:06.703Z,69.4
2018-11-06T12:38:56.780Z,69.4
2018-11-06T12:39:46.804Z,69.3
2018-11-06T12:40:37.177Z,69.3
2018-11-06T12:41:27.237Z,69.3
2018-11-06T12:42:17.124Z,69.3
2018-11-06T12:43:07.358Z,69.2
2018-11-06T12:43:57.127Z,69.2
2018-11-06T12:44:47.190Z,69.1
2018-11-06T12:45:37.564Z,69.1
2018-11-06T12:46:27.300Z,69.1
2018-11-06T12:47:17.374Z,69.1
2018-11-06T12:48:06.945Z,69
2018-11-06T12:48:57.494Z,69
2018-11-06T12:49:47.342Z,69
2018-11-06T12:50:37.907Z,68.9
2018-11-06T12:51:27.959Z,68.9
2018-11-06T12:52:17.751Z,68.9
2018-11-06T12:53:07.781Z,68.8
2018-11-06T12:53:57.857Z,68.8
2018-11-06T12:54:48.171Z,68.7
2018-11-06T12:55:37.710Z,68.7
2018-11-06T12:56:28.044Z,68.6
2018-11-06T12:57:18.396Z,68.6
2018-11-06T12:58:08.439Z,68.6
2018-11-06T12:58:58.226Z,68.5
2018-11-06T12:59:48.284Z,68.4
2018-11-06T13:00:38.617Z,68.4
2018-11-06T13:01:28.425Z,68.3
2018-11-06T13:02:18.486Z,68.3
2018-11-06T13:03:08.941Z,68.2
2018-11-06T13:03:58.578Z,68.1
2018-11-06T13:04:48.164Z,68.1
2018-11-06T13:05:38.227Z,68
2018-11-06T13:06:29.058Z,68
2018-11-06T13:07:19.114Z,67.9
2018-11-06T13:08:08.880Z,67.8
2018-11-06T13:08:58.939Z,67.8
2018-11-06T13:09:49.116Z,67.7
2018-11-06T13:10:39.345Z,67.6
2018-11-06T13:11:29.143Z,67.6
2018-11-06T13:12:19.534Z,67.5
2018-11-06T13:13:09.074Z,67.4
2018-11-06T13:13:59.345Z,67.3
2018-11-06T13:14:49.083Z,67.3
2018-11-06T13:15:39.748Z,67.2
2018-11-06T13:16:29.777Z,67.1
2018-11-06T13:17:19.847Z,66.8
2018-11-06T13:18:09.333Z,66.8
2018-11-06T13:18:59.405Z,66.6
2018-11-06T13:19:49.265Z,66.6
2018-11-06T13:20:40.078Z,66.5
2018-11-06T13:21:29.874Z,66.4
2018-11-06T13:22:19.920Z,66.3
2018-11-06T13:23:10.284Z,66.3
2018-11-06T13:23:59.845Z,66.2
2018-11-06T13:24:50.100Z,66.1
2018-11-06T13:25:40.300Z,66
2018-11-06T13:26:30.692Z,65.9
2018-11-06T13:27:20.568Z,65.8
2018-11-06T13:28:10.174Z,65.7
2018-11-06T13:29:00.429Z,65.6
2018-11-06T13:29:50.287Z,65.5
2018-11-06T13:30:40.296Z,65.4
2018-11-06T13:31:30.595Z,65.3
2018-11-06T13:32:20.818Z,65.3
2018-11-06T13:33:10.727Z,65.1
2018-11-06T13:34:00.775Z,65
2018-11-06T13:34:51.119Z,64.9
2018-11-06T13:35:40.799Z,64.8
2018-11-06T13:36:30.966Z,64.7
2018-11-06T13:37:21.122Z,64.6
2018-11-06T13:38:11.387Z,64.5
2018-11-06T13:39:01.444Z,64.4
2018-11-06T13:39:51.487Z,64.3
2018-11-06T13:40:40.974Z,64.2
2018-11-06T13:41:31.637Z,64.1
2018-11-06T13:42:21.268Z,63.9
2018-11-06T13:43:11.556Z,63.9
2018-11-06T13:44:02.018Z,63.8
2018-11-06T13:44:52.279Z,63.6
2018-11-06T13:45:42.767Z,63.6
2018-11-06T13:46:31.408Z,63.4
2018-11-06T13:47:22.041Z,63.3
2018-11-06T13:48:11.425Z,63.3
2018-11-06T13:49:01.901Z,63.1
2018-11-06T13:49:51.957Z,63
2018-11-06T13:50:42.528Z,62.9
2018-11-06T14:07:32.402Z,56.3
2018-11-06T14:08:22.182Z,55.8
2018-11-06T14:09:12.248Z,55.3
2018-11-06T14:10:02.892Z,54.8
2018-11-06T14:10:52.636Z,54.4
2018-11-06T14:11:42.425Z,53.9
2018-11-06T14:12:33.062Z,53.5
2018-11-06T14:13:22.822Z,53.1
2018-11-06T14:14:12.887Z,52.6
2018-11-06T14:15:02.948Z,52.3
2018-11-06T14:15:52.994Z,51.8
2018-11-06T14:16:43.139Z,51.4
2018-11-06T14:17:32.834Z,50.9
2018-11-06T14:18:23.447Z,50.6
2018-11-06T14:19:13.325Z,50.1
2018-11-06T14:20:03.575Z,49.7
2018-11-06T14:20:53.432Z,49.3
2018-11-06T14:21:43.775Z,48.9
2018-11-06T14:22:33.509Z,48.5
2018-11-06T14:23:23.559Z,48.1
2018-11-06T14:24:13.903Z,47.7
2018-11-06T14:25:03.700Z,47.3
2018-11-06T14:25:53.445Z,46.9
2018-11-06T14:26:43.821Z,46.6
2018-11-06T14:27:34.552Z,46.2
2018-11-06T14:28:23.947Z,45.8
2018-11-06T14:29:13.980Z,45.4
2018-11-06T14:30:04.342Z,45.1
2018-11-06T14:30:53.912Z,44.8
2018-11-06T14:31:44.249Z,44.4
2018-11-06T14:32:33.945Z,44
2018-11-06T14:33:23.995Z,43.7
2018-11-06T14:34:14.050Z,43.4
2018-11-06T14:35:04.498Z,43.1
2018-11-06T14:35:55.404Z,42.7
2018-11-06T14:36:44.520Z,42.3
2018-11-06T14:37:34.302Z,42
2018-11-06T14:38:24.941Z,41.7
2018-11-06T14:39:14.429Z,41.4
2018-11-06T14:40:04.284Z,41.1
2018-11-06T14:40:55.125Z,40.8
2018-11-06T14:41:44.605Z,40.4
2018-11-06T14:42:34.987Z,40.1
2018-11-06T14:43:25.291Z,39.8
2018-11-06T14:44:14.871Z,39.4
2018-11-06T14:45:05.154Z,39.2
2018-11-06T14:45:55.505Z,38.9
2018-11-06T14:46:45.249Z,38.6
2018-11-06T14:47:35.371Z,38.3
2018-11-06T14:48:25.575Z,38
2018-11-06T14:49:15.625Z,37.7
2018-11-06T14:50:05.806Z,37.4
2018-11-06T14:50:55.856Z,37.1
2018-11-06T14:51:45.636Z,36.8
2018-11-06T14:52:35.691Z,36.6
2018-11-06T14:53:25.701Z,36.3
2018-11-06T14:54:15.796Z,36
2018-11-06T14:55:06.195Z,35.8
2018-11-06T14:55:56.481Z,35.4
2018-11-06T14:56:46.716Z,35.2
2018-11-06T14:57:36.340Z,34.9
2018-11-06T14:58:26.106Z,34.7
2018-11-06T14:59:16.511Z,34.4
2018-11-06T15:00:06.538Z,34.1
2018-11-06T15:00:56.598Z,33.9
2018-11-06T15:01:46.633Z,33.6
2018-11-06T15:02:36.717Z,33.4
2018-11-06T15:03:25.987Z,33.1
2018-11-06T15:04:16.250Z,32.9
2018-11-06T15:05:06.839Z,32.6
2018-11-06T15:05:56.933Z,32.4
2018-11-06T15:06:46.827Z,32.1
2018-11-06T15:07:37.068Z,31.9
2018-11-06T15:08:26.943Z,31.6
2018-11-06T15:09:16.916Z,31.4
2018-11-06T15:10:06.675Z,31.2
2018-11-06T15:10:56.842Z,30.9
2018-11-06T15:11:47.112Z,30.7
2018-11-06T15:12:37.235Z,30.5
2018-11-06T15:13:27.018Z,30.3
2018-11-06T15:14:17.284Z,30
2018-11-06T15:15:07.147Z,29.8
2018-11-06T15:15:57.107Z,29.6
2018-11-06T15:16:47.174Z,29.4
2018-11-06T15:17:37.632Z,29.2
2018-11-06T15:18:27.885Z,28.9
2018-11-06T15:19:17.442Z,28.8
2018-11-06T15:20:08.027Z,28.6
2018-11-06T15:20:57.730Z,28.3
2018-11-06T15:21:47.824Z,28.1
2018-11-06T15:22:37.679Z,27.9
2018-11-06T15:23:27.842Z,27.7
2018-11-06T15:24:17.894Z,27.5
2018-11-06T15:25:07.872Z,27.3
2018-11-06T15:25:58.233Z,27.1
2018-11-06T15:26:48.486Z,26.9
2018-11-06T15:27:38.264Z,26.8
2018-11-06T15:28:28.033Z,26.6
2018-11-06T15:29:18.459Z,26.4
2018-11-06T15:30:08.974Z,26.2
2018-11-06T15:30:58.810Z,26
2018-11-06T15:31:48.556Z,25.8
2018-11-06T15:32:38.421Z,25.7
2018-11-06T15:33:28.184Z,25.5
2018-11-06T15:34:18.751Z,25.3
2018-11-06T15:35:08.790Z,25.2
2018-11-06T15:35:58.562Z,24.9
2018-11-06T15:36:48.908Z,24.8
2018-11-06T15:37:39.499Z,24.6
2018-11-06T15:38:29.039Z,24.5
2018-11-06T15:39:19.535Z,24.3
2018-11-06T15:40:09.177Z,24.2
2018-11-06T15:41:00.133Z,24
2018-11-06T15:41:49.902Z,23.8
2018-11-06T15:42:39.893Z,23.7
2018-11-06T15:43:29.409Z,23.6
2018-11-06T15:44:19.474Z,23.4
2018-11-06T15:45:09.514Z,23.3
2018-11-06T15:45:59.867Z,23.1
2018-11-06T15:46:49.664Z,23